sensor_id;sensor_type;location;lat;lon;timestamp;noise_LAeq;noise_LA_min;noise_LA_max;noise_LA01;noise_LA95
71034;Laerm;58847;52.378;4.740;2023-02-15T00:00:05;48.38;47.35;49.19;;
71034;Laerm;58847;52.378;4.740;2023-02-15T00:00:18;48.37;47.42;49.79;;
71034;Laerm;58847;52.378;4.740;2023-02-15T00:00:28;48.34;47.45;49.12;;
71034;Laerm;58847;52.378;4.740;2023-02-15T00:00:38;48.37;47.16;49.81;;
71034;Laerm;58847;52.378;4.740;2023-02-15T00:00:49;48.29;47.42;49.82;;
71034;Laerm;58847;52.378;4.740;2023-02-15T00:01:08;48.28;47.32;49.47;;
71034;Laerm;58847;52.378;4.740;2023-02-15T00:01:19;48.41;47.09;49.75;;
71034;Laerm;58847;52.378;4.740;2023-02-15T00:01:29;48.44;47.40;49.57;;
71034;Laerm;58847;52.378;4.740;2023-02-15T00:01:40;48.38;47.35;49.50;;
71034;Laerm;58847;52.378;4.740;2023-02-15T00:01:50;48.39;47.42;49.52;;
71034;Laerm;58847;52.378;4.740;2023-02-15T00:02:01;48.39;47.25;50.00;;
71034;Laerm;58847;52.378;4.740;2023-02-15T00:02:12;48.52;47.45;49.40;;
71034;Laerm;58847;52.378;4.740;2023-02-15T00:02:22;48.35;47.43;49.45;;
71034;Laerm;58847;52.378;4.740;2023-02-15T00:02:34;48.38;47.41;49.54;;
71034;Laerm;58847;52.378;4.740;2023-02-15T00:02:44;48.35;47.53;49.27;;
71034;Laerm;58847;52.378;4.740;2023-02-15T00:02:54;48.38;47.27;49.26;;
71034;Laerm;58847;52.378;4.740;2023-02-15T00:03:05;48.40;47.44;49.15;;
71034;Laerm;58847;52.378;4.740;2023-02-15T00:03:15;48.37;47.44;49.70;;
71034;Laerm;58847;52.378;4.740;2023-02-15T00:03:26;48.32;47.46;49.19;;
71034;Laerm;58847;52.378;4.740;2023-02-15T00:03:37;48.42;47.49;50.20;;
71034;Laerm;58847;52.378;4.740;2023-02-15T00:03:48;48.35;47.39;49.24;;
71034;Laerm;58847;52.378;4.740;2023-02-15T00:03:58;48.43;47.26;49.81;;
71034;Laerm;58847;52.378;4.740;2023-02-15T00:04:09;48.41;47.43;49.44;;
71034;Laerm;58847;52.378;4.740;2023-02-15T00:04:23;48.44;47.37;49.55;;
71034;Laerm;58847;52.378;4.740;2023-02-15T00:04:34;48.47;47.60;49.63;;
71034;Laerm;58847;52.378;4.740;2023-02-15T00:04:56;48.41;47.23;49.76;;
71034;Laerm;58847;52.378;4.740;2023-02-15T00:05:07;48.45;47.58;49.49;;
71034;Laerm;58847;52.378;4.740;2023-02-15T00:05:17;48.41;47.31;49.20;;
71034;Laerm;58847;52.378;4.740;2023-02-15T00:05:29;48.42;47.46;49.40;;
71034;Laerm;58847;52.378;4.740;2023-02-15T00:05:40;48.40;47.47;49.53;;
71034;Laerm;58847;52.378;4.740;2023-02-15T00:05:50;48.46;47.60;49.49;;
71034;Laerm;58847;52.378;4.740;2023-02-15T00:06:00;48.38;47.39;49.19;;
71034;Laerm;58847;52.378;4.740;2023-02-15T00:06:11;48.41;47.26;49.72;;
71034;Laerm;58847;52.378;4.740;2023-02-15T00:06:21;48.45;47.17;50.18;;
71034;Laerm;58847;52.378;4.740;2023-02-15T00:06:32;48.41;47.34;49.52;;
71034;Laerm;58847;52.378;4.740;2023-02-15T00:06:42;48.36;47.62;49.54;;
71034;Laerm;58847;52.378;4.740;2023-02-15T00:06:53;48.42;47.58;49.59;;
71034;Laerm;58847;52.378;4.740;2023-02-15T00:07:03;48.38;47.33;49.68;;
71034;Laerm;58847;52.378;4.740;2023-02-15T00:07:22;48.42;47.42;49.38;;
71034;Laerm;58847;52.378;4.740;2023-02-15T00:07:33;48.46;47.35;49.89;;
71034;Laerm;58847;52.378;4.740;2023-02-15T00:07:44;48.70;47.56;49.90;;
71034;Laerm;58847;52.378;4.740;2023-02-15T00:07:54;48.84;47.28;50.15;;
71034;Laerm;58847;52.378;4.740;2023-02-15T00:08:04;48.89;47.74;49.93;;
71034;Laerm;58847;52.378;4.740;2023-02-15T00:08:15;48.75;47.74;50.48;;
71034;Laerm;58847;52.378;4.740;2023-02-15T00:08:25;48.92;47.81;50.05;;
71034;Laerm;58847;52.378;4.740;2023-02-15T00:08:35;48.91;47.95;50.41;;
71034;Laerm;58847;52.378;4.740;2023-02-15T00:08:45;48.82;47.58;50.13;;
71034;Laerm;58847;52.378;4.740;2023-02-15T00:08:56;48.86;47.70;49.78;;
71034;Laerm;58847;52.378;4.740;2023-02-15T00:09:06;48.83;47.43;50.36;;
71034;Laerm;58847;52.378;4.740;2023-02-15T00:09:16;48.77;47.75;49.82;;
71034;Laerm;58847;52.378;4.740;2023-02-15T00:09:27;48.87;47.82;50.09;;
71034;Laerm;58847;52.378;4.740;2023-02-15T00:09:37;48.97;47.91;50.21;;
71034;Laerm;58847;52.378;4.740;2023-02-15T00:09:48;48.75;47.67;50.08;;
71034;Laerm;58847;52.378;4.740;2023-02-15T00:09:58;48.72;47.52;49.81;;
71034;Laerm;58847;52.378;4.740;2023-02-15T00:10:09;48.87;47.83;50.31;;
71034;Laerm;58847;52.378;4.740;2023-02-15T00:10:19;48.89;47.95;50.54;;
71034;Laerm;58847;52.378;4.740;2023-02-15T00:10:29;48.89;47.92;50.05;;
71034;Laerm;58847;52.378;4.740;2023-02-15T00:10:41;48.97;47.88;50.35;;
71034;Laerm;58847;52.378;4.740;2023-02-15T00:10:52;48.99;47.77;50.27;;
71034;Laerm;58847;52.378;4.740;2023-02-15T00:11:03;49.03;47.75;50.53;;
71034;Laerm;58847;52.378;4.740;2023-02-15T00:11:14;48.93;47.86;50.23;;
71034;Laerm;58847;52.378;4.740;2023-02-15T00:11:25;48.88;47.73;50.02;;
71034;Laerm;58847;52.378;4.740;2023-02-15T00:11:52;48.92;47.68;50.18;;
71034;Laerm;58847;52.378;4.740;2023-02-15T00:12:02;49.11;48.03;50.91;;
71034;Laerm;58847;52.378;4.740;2023-02-15T00:12:13;49.09;47.83;50.72;;
71034;Laerm;58847;52.378;4.740;2023-02-15T00:12:23;49.07;48.07;50.07;;
71034;Laerm;58847;52.378;4.740;2023-02-15T00:12:34;49.06;48.17;50.04;;
71034;Laerm;58847;52.378;4.740;2023-02-15T00:12:44;49.14;47.80;50.61;;
71034;Laerm;58847;52.378;4.740;2023-02-15T00:12:54;48.96;47.87;50.28;;
71034;Laerm;58847;52.378;4.740;2023-02-15T00:13:04;48.99;47.89;50.75;;
71034;Laerm;58847;52.378;4.740;2023-02-15T00:13:15;48.90;47.83;50.58;;
71034;Laerm;58847;52.378;4.740;2023-02-15T00:13:36;49.03;47.97;50.89;;
71034;Laerm;58847;52.378;4.740;2023-02-15T00:13:48;49.01;47.51;50.47;;
71034;Laerm;58847;52.378;4.740;2023-02-15T00:13:58;48.88;47.91;49.84;;
71034;Laerm;58847;52.378;4.740;2023-02-15T00:14:10;48.94;47.66;50.12;;
71034;Laerm;58847;52.378;4.740;2023-02-15T00:14:22;48.82;47.90;49.97;;
71034;Laerm;58847;52.378;4.740;2023-02-15T00:14:32;48.87;47.84;50.03;;
71034;Laerm;58847;52.378;4.740;2023-02-15T00:14:42;48.86;47.87;49.86;;
71034;Laerm;58847;52.378;4.740;2023-02-15T00:14:52;48.98;47.80;50.35;;
71034;Laerm;58847;52.378;4.740;2023-02-15T00:15:03;48.92;47.93;50.25;;
71034;Laerm;58847;52.378;4.740;2023-02-15T00:15:13;48.86;47.60;50.17;;
71034;Laerm;58847;52.378;4.740;2023-02-15T00:15:23;48.86;47.75;49.99;;
71034;Laerm;58847;52.378;4.740;2023-02-15T00:15:35;48.91;47.70;50.10;;
71034;Laerm;58847;52.378;4.740;2023-02-15T00:15:46;48.83;47.65;49.85;;
71034;Laerm;58847;52.378;4.740;2023-02-15T00:16:02;48.93;47.76;49.97;;
71034;Laerm;58847;52.378;4.740;2023-02-15T00:16:13;49.05;47.78;50.66;;
71034;Laerm;58847;52.378;4.740;2023-02-15T00:16:23;48.94;47.70;50.24;;
71034;Laerm;58847;52.378;4.740;2023-02-15T00:16:33;48.85;47.79;49.96;;
71034;Laerm;58847;52.378;4.740;2023-02-15T00:16:46;48.86;48.00;50.05;;
71034;Laerm;58847;52.378;4.740;2023-02-15T00:16:57;48.84;47.70;50.03;;
71034;Laerm;58847;52.378;4.740;2023-02-15T00:17:09;48.89;47.79;50.00;;
71034;Laerm;58847;52.378;4.740;2023-02-15T00:17:20;48.85;47.57;50.10;;
71034;Laerm;58847;52.378;4.740;2023-02-15T00:17:36;48.82;47.76;50.06;;
71034;Laerm;58847;52.378;4.740;2023-02-15T00:17:46;48.95;47.87;50.32;;
71034;Laerm;58847;52.378;4.740;2023-02-15T00:17:57;49.10;48.16;50.35;;
71034;Laerm;58847;52.378;4.740;2023-02-15T00:18:07;49.01;47.74;50.36;;
71034;Laerm;58847;52.378;4.740;2023-02-15T00:18:17;49.04;47.93;50.68;;
71034;Laerm;58847;52.378;4.740;2023-02-15T00:18:27;49.08;48.03;50.32;;
71034;Laerm;58847;52.378;4.740;2023-02-15T00:18:38;48.94;47.70;49.97;;
71034;Laerm;58847;52.378;4.740;2023-02-15T00:18:51;48.83;47.78;50.27;;
71034;Laerm;58847;52.378;4.740;2023-02-15T00:19:01;48.93;47.89;49.90;;
71034;Laerm;58847;52.378;4.740;2023-02-15T00:19:12;48.89;47.97;50.05;;
71034;Laerm;58847;52.378;4.740;2023-02-15T00:19:22;48.90;47.72;50.07;;
71034;Laerm;58847;52.378;4.740;2023-02-15T00:19:33;48.78;47.85;49.83;;
71034;Laerm;58847;52.378;4.740;2023-02-15T00:19:43;48.83;47.38;49.78;;
71034;Laerm;58847;52.378;4.740;2023-02-15T00:19:53;48.80;47.59;49.87;;
71034;Laerm;58847;52.378;4.740;2023-02-15T00:20:04;48.90;47.83;50.29;;
71034;Laerm;58847;52.378;4.740;2023-02-15T00:20:14;49.82;48.39;50.81;;
71034;Laerm;58847;52.378;4.740;2023-02-15T00:20:24;49.82;48.62;50.91;;
71034;Laerm;58847;52.378;4.740;2023-02-15T00:20:35;49.90;48.81;50.91;;
71034;Laerm;58847;52.378;4.740;2023-02-15T00:20:45;49.75;48.75;50.74;;
71034;Laerm;58847;52.378;4.740;2023-02-15T00:20:55;50.03;48.80;51.77;;
71034;Laerm;58847;52.378;4.740;2023-02-15T00:21:07;50.00;48.73;51.06;;
71034;Laerm;58847;52.378;4.740;2023-02-15T00:21:17;50.08;48.90;51.33;;
71034;Laerm;58847;52.378;4.740;2023-02-15T00:21:28;50.11;48.82;51.44;;
71034;Laerm;58847;52.378;4.740;2023-02-15T00:21:42;50.05;48.17;51.32;;
71034;Laerm;58847;52.378;4.740;2023-02-15T00:21:52;49.88;48.15;51.27;;
71034;Laerm;58847;52.378;4.740;2023-02-15T00:22:02;49.77;48.44;51.30;;
71034;Laerm;58847;52.378;4.740;2023-02-15T00:22:12;49.89;48.31;51.84;;
71034;Laerm;58847;52.378;4.740;2023-02-15T00:22:23;50.26;48.44;51.69;;
71034;Laerm;58847;52.378;4.740;2023-02-15T00:22:33;50.18;48.51;51.65;;
71034;Laerm;58847;52.378;4.740;2023-02-15T00:22:43;50.06;48.37;51.59;;
71034;Laerm;58847;52.378;4.740;2023-02-15T00:22:53;49.73;48.37;51.31;;
71034;Laerm;58847;52.378;4.740;2023-02-15T00:23:04;49.91;48.40;51.37;;
71034;Laerm;58847;52.378;4.740;2023-02-15T00:23:14;50.27;48.72;51.53;;
71034;Laerm;58847;52.378;4.740;2023-02-15T00:23:26;50.30;48.81;51.72;;
71034;Laerm;58847;52.378;4.740;2023-02-15T00:23:36;50.05;48.57;51.40;;
71034;Laerm;58847;52.378;4.740;2023-02-15T00:23:46;50.14;48.69;51.48;;
71034;Laerm;58847;52.378;4.740;2023-02-15T00:23:57;50.22;49.21;51.34;;
71034;Laerm;58847;52.378;4.740;2023-02-15T00:24:08;50.06;48.73;51.79;;
71034;Laerm;58847;52.378;4.740;2023-02-15T00:24:19;49.93;48.52;51.54;;
71034;Laerm;58847;52.378;4.740;2023-02-15T00:24:29;49.94;48.35;51.31;;
71034;Laerm;58847;52.378;4.740;2023-02-15T00:24:39;50.23;48.68;51.39;;
71034;Laerm;58847;52.378;4.740;2023-02-15T00:24:50;50.16;48.98;51.29;;
71034;Laerm;58847;52.378;4.740;2023-02-15T00:25:00;50.07;48.28;51.59;;
71034;Laerm;58847;52.378;4.740;2023-02-15T00:25:10;50.14;48.31;52.19;;
71034;Laerm;58847;52.378;4.740;2023-02-15T00:25:20;50.30;48.92;51.45;;
71034;Laerm;58847;52.378;4.740;2023-02-15T00:25:31;50.23;48.87;51.44;;
71034;Laerm;58847;52.378;4.740;2023-02-15T00:25:41;50.17;48.93;51.52;;
71034;Laerm;58847;52.378;4.740;2023-02-15T00:25:51;50.29;48.85;51.48;;
71034;Laerm;58847;52.378;4.740;2023-02-15T00:26:08;50.38;48.10;51.97;;
71034;Laerm;58847;52.378;4.740;2023-02-15T00:26:19;50.21;48.34;51.55;;
71034;Laerm;58847;52.378;4.740;2023-02-15T00:26:29;49.74;48.31;51.55;;
71034;Laerm;58847;52.378;4.740;2023-02-15T00:26:40;49.99;48.37;51.74;;
71034;Laerm;58847;52.378;4.740;2023-02-15T00:26:52;50.06;48.64;51.57;;
71034;Laerm;58847;52.378;4.740;2023-02-15T00:27:02;50.32;48.64;51.73;;
71034;Laerm;58847;52.378;4.740;2023-02-15T00:27:12;50.40;48.93;51.58;;
71034;Laerm;58847;52.378;4.740;2023-02-15T00:27:23;50.44;48.63;51.61;;
71034;Laerm;58847;52.378;4.740;2023-02-15T00:27:33;50.22;48.46;51.48;;
71034;Laerm;58847;52.378;4.740;2023-02-15T00:27:44;50.19;48.45;51.86;;
71034;Laerm;58847;52.378;4.740;2023-02-15T00:27:54;50.09;48.25;51.85;;
71034;Laerm;58847;52.378;4.740;2023-02-15T00:28:04;50.23;48.35;51.67;;
71034;Laerm;58847;52.378;4.740;2023-02-15T00:28:15;49.88;48.25;51.66;;
71034;Laerm;58847;52.378;4.740;2023-02-15T00:28:25;49.93;48.32;51.35;;
71034;Laerm;58847;52.378;4.740;2023-02-15T00:28:35;50.28;49.22;51.62;;
71034;Laerm;58847;52.378;4.740;2023-02-15T00:28:45;50.17;48.26;51.56;;
71034;Laerm;58847;52.378;4.740;2023-02-15T00:28:56;50.38;48.51;51.58;;
71034;Laerm;58847;52.378;4.740;2023-02-15T00:29:11;50.05;47.93;51.59;;
71034;Laerm;58847;52.378;4.740;2023-02-15T00:29:22;50.39;48.34;51.88;;
71034;Laerm;58847;52.378;4.740;2023-02-15T00:29:32;50.22;49.00;51.58;;
71034;Laerm;58847;52.378;4.740;2023-02-15T00:29:42;50.96;48.63;64.88;;
71034;Laerm;58847;52.378;4.740;2023-02-15T00:29:53;49.44;47.91;51.32;;
71034;Laerm;58847;52.378;4.740;2023-02-15T00:30:03;49.23;48.16;50.55;;
71034;Laerm;58847;52.378;4.740;2023-02-15T00:30:13;49.18;48.07;50.51;;
71034;Laerm;58847;52.378;4.740;2023-02-15T00:30:24;49.12;47.99;50.29;;
71034;Laerm;58847;52.378;4.740;2023-02-15T00:30:34;49.08;47.87;50.45;;
71034;Laerm;58847;52.378;4.740;2023-02-15T00:30:44;49.01;47.74;50.14;;
71034;Laerm;58847;52.378;4.740;2023-02-15T00:30:54;49.04;47.85;50.62;;
71034;Laerm;58847;52.378;4.740;2023-02-15T00:31:08;49.02;48.02;50.46;;
71034;Laerm;58847;52.378;4.740;2023-02-15T00:31:19;49.08;47.83;50.37;;
71034;Laerm;58847;52.378;4.740;2023-02-15T00:31:30;50.69;48.51;53.53;;
71034;Laerm;58847;52.378;4.740;2023-02-15T00:31:40;51.31;48.47;53.63;;
71034;Laerm;58847;52.378;4.740;2023-02-15T00:31:51;51.01;49.12;52.79;;
71034;Laerm;58847;52.378;4.740;2023-02-15T00:32:02;51.03;49.53;52.70;;
71034;Laerm;58847;52.378;4.740;2023-02-15T00:32:12;50.93;49.55;52.18;;
71034;Laerm;58847;52.378;4.740;2023-02-15T00:32:22;51.05;49.13;52.66;;
71034;Laerm;58847;52.378;4.740;2023-02-15T00:32:32;51.08;49.52;52.93;;
71034;Laerm;58847;52.378;4.740;2023-02-15T00:32:43;50.87;49.16;52.24;;
71034;Laerm;58847;52.378;4.740;2023-02-15T00:32:53;51.38;49.02;52.66;;
71034;Laerm;58847;52.378;4.740;2023-02-15T00:33:03;51.63;49.65;53.25;;
71034;Laerm;58847;52.378;4.740;2023-02-15T00:33:13;51.31;49.23;53.83;;
71034;Laerm;58847;52.378;4.740;2023-02-15T00:33:23;51.63;49.96;58.79;;
71034;Laerm;58847;52.378;4.740;2023-02-15T00:33:35;52.08;50.11;53.96;;
71034;Laerm;58847;52.378;4.740;2023-02-15T00:33:45;51.95;50.11;53.70;;
71034;Laerm;58847;52.378;4.740;2023-02-15T00:33:56;51.78;49.52;53.62;;
71034;Laerm;58847;52.378;4.740;2023-02-15T00:34:27;51.76;49.79;53.84;;
71034;Laerm;58847;52.378;4.740;2023-02-15T00:34:38;52.09;49.99;53.86;;
71034;Laerm;58847;52.378;4.740;2023-02-15T00:34:48;51.96;49.46;53.95;;
71034;Laerm;58847;52.378;4.740;2023-02-15T00:34:58;51.73;49.04;53.33;;
71034;Laerm;58847;52.378;4.740;2023-02-15T00:35:08;51.48;49.34;53.26;;
71034;Laerm;58847;52.378;4.740;2023-02-15T00:35:19;51.63;49.87;53.32;;
71034;Laerm;58847;52.378;4.740;2023-02-15T00:35:29;51.67;49.78;53.41;;
71034;Laerm;58847;52.378;4.740;2023-02-15T00:35:39;51.67;49.37;53.78;;
71034;Laerm;58847;52.378;4.740;2023-02-15T00:35:55;51.83;50.09;53.33;;
71034;Laerm;58847;52.378;4.740;2023-02-15T00:36:08;51.73;50.15;53.35;;
71034;Laerm;58847;52.378;4.740;2023-02-15T00:36:18;51.66;49.49;53.36;;
71034;Laerm;58847;52.378;4.740;2023-02-15T00:36:28;51.58;49.46;53.05;;
71034;Laerm;58847;52.378;4.740;2023-02-15T00:36:39;51.69;49.51;53.16;;
71034;Laerm;58847;52.378;4.740;2023-02-15T00:36:50;51.94;50.16;53.61;;
71034;Laerm;58847;52.378;4.740;2023-02-15T00:37:00;51.85;49.86;53.25;;
71034;Laerm;58847;52.378;4.740;2023-02-15T00:37:10;51.68;49.96;53.06;;
71034;Laerm;58847;52.378;4.740;2023-02-15T00:37:20;51.99;50.20;53.96;;
71034;Laerm;58847;52.378;4.740;2023-02-15T00:37:31;51.78;49.53;54.16;;
71034;Laerm;58847;52.378;4.740;2023-02-15T00:37:41;51.47;49.20;53.34;;
71034;Laerm;58847;52.378;4.740;2023-02-15T00:37:51;51.47;49.65;53.14;;
71034;Laerm;58847;52.378;4.740;2023-02-15T00:38:02;51.57;49.46;53.24;;
71034;Laerm;58847;52.378;4.740;2023-02-15T00:38:12;51.72;49.61;53.82;;
71034;Laerm;58847;52.378;4.740;2023-02-15T00:38:22;51.97;50.18;53.97;;
71034;Laerm;58847;52.378;4.740;2023-02-15T00:38:33;52.02;49.93;53.90;;
71034;Laerm;58847;52.378;4.740;2023-02-15T00:38:50;51.66;49.79;53.47;;
71034;Laerm;58847;52.378;4.740;2023-02-15T00:39:00;51.79;49.40;53.44;;
71034;Laerm;58847;52.378;4.740;2023-02-15T00:39:11;52.00;50.14;53.42;;
71034;Laerm;58847;52.378;4.740;2023-02-15T00:39:21;51.81;49.08;53.77;;
71034;Laerm;58847;52.378;4.740;2023-02-15T00:39:45;51.94;49.57;53.88;;
71034;Laerm;58847;52.378;4.740;2023-02-15T00:39:55;51.89;50.30;53.45;;
71034;Laerm;58847;52.378;4.740;2023-02-15T00:40:06;51.94;49.69;53.38;;
71034;Laerm;58847;52.378;4.740;2023-02-15T00:40:16;51.93;49.68;53.79;;
71034;Laerm;58847;52.378;4.740;2023-02-15T00:40:36;51.51;49.72;53.51;;
71034;Laerm;58847;52.378;4.740;2023-02-15T00:40:51;51.76;50.03;53.25;;
71034;Laerm;58847;52.378;4.740;2023-02-15T00:41:02;51.76;49.35;54.19;;
71034;Laerm;58847;52.378;4.740;2023-02-15T00:41:13;51.54;49.23;52.94;;
71034;Laerm;58847;52.378;4.740;2023-02-15T00:41:23;51.40;49.03;52.80;;
71034;Laerm;58847;52.378;4.740;2023-02-15T00:41:34;51.29;48.93;53.67;;
71034;Laerm;58847;52.378;4.740;2023-02-15T00:41:44;51.56;49.18;53.20;;
71034;Laerm;58847;52.378;4.740;2023-02-15T00:41:55;51.52;49.87;53.27;;
71034;Laerm;58847;52.378;4.740;2023-02-15T00:42:05;51.37;49.65;53.22;;
71034;Laerm;58847;52.378;4.740;2023-02-15T00:42:15;51.40;49.87;53.14;;
71034;Laerm;58847;52.378;4.740;2023-02-15T00:42:25;51.28;49.65;53.11;;
71034;Laerm;58847;52.378;4.740;2023-02-15T00:42:36;51.33;49.43;52.79;;
71034;Laerm;58847;52.378;4.740;2023-02-15T00:42:46;51.43;49.33;53.59;;
71034;Laerm;58847;52.378;4.740;2023-02-15T00:42:56;51.41;49.64;53.17;;
71034;Laerm;58847;52.378;4.740;2023-02-15T00:43:08;51.39;49.91;53.60;;
71034;Laerm;58847;52.378;4.740;2023-02-15T00:43:18;51.62;49.91;54.55;;
71034;Laerm;58847;52.378;4.740;2023-02-15T00:43:29;51.73;49.94;53.72;;
71034;Laerm;58847;52.378;4.740;2023-02-15T00:43:40;51.76;49.87;53.87;;
71034;Laerm;58847;52.378;4.740;2023-02-15T00:43:50;51.52;49.65;53.09;;
71034;Laerm;58847;52.378;4.740;2023-02-15T00:44:00;51.57;49.93;53.43;;
71034;Laerm;58847;52.378;4.740;2023-02-15T00:44:11;51.36;49.23;52.76;;
71034;Laerm;58847;52.378;4.740;2023-02-15T00:44:21;51.66;49.31;53.80;;
71034;Laerm;58847;52.378;4.740;2023-02-15T00:44:32;51.32;49.31;53.30;;
71034;Laerm;58847;52.378;4.740;2023-02-15T00:44:42;51.62;49.52;54.20;;
71034;Laerm;58847;52.378;4.740;2023-02-15T00:44:52;51.27;49.47;53.12;;
71034;Laerm;58847;52.378;4.740;2023-02-15T00:45:02;51.26;49.21;52.71;;
71034;Laerm;58847;52.378;4.740;2023-02-15T00:45:13;51.14;49.64;53.08;;
71034;Laerm;58847;52.378;4.740;2023-02-15T00:45:23;51.37;49.67;53.73;;
71034;Laerm;58847;52.378;4.740;2023-02-15T00:45:41;51.61;49.97;53.89;;
71034;Laerm;58847;52.378;4.740;2023-02-15T00:45:51;51.59;49.92;53.32;;
71034;Laerm;58847;52.378;4.740;2023-02-15T00:46:02;51.43;49.65;52.79;;
71034;Laerm;58847;52.378;4.740;2023-02-15T00:46:13;51.46;49.25;53.42;;
71034;Laerm;58847;52.378;4.740;2023-02-15T00:46:23;51.42;49.88;53.01;;
71034;Laerm;58847;52.378;4.740;2023-02-15T00:46:34;51.40;49.76;52.89;;
71034;Laerm;58847;52.378;4.740;2023-02-15T00:46:44;51.54;49.68;53.80;;
71034;Laerm;58847;52.378;4.740;2023-02-15T00:46:54;51.25;48.68;53.46;;
71034;Laerm;58847;52.378;4.740;2023-02-15T00:47:08;49.59;48.22;51.09;;
71034;Laerm;58847;52.378;4.740;2023-02-15T00:47:21;49.69;48.06;51.10;;
71034;Laerm;58847;52.378;4.740;2023-02-15T00:47:32;49.63;48.42;51.49;;
71034;Laerm;58847;52.378;4.740;2023-02-15T00:47:42;49.44;48.43;51.38;;
71034;Laerm;58847;52.378;4.740;2023-02-15T00:47:53;49.34;48.15;50.56;;
71034;Laerm;58847;52.378;4.740;2023-02-15T00:48:03;49.30;47.94;50.41;;
71034;Laerm;58847;52.378;4.740;2023-02-15T00:48:13;49.28;47.78;50.72;;
71034;Laerm;58847;52.378;4.740;2023-02-15T00:48:23;49.18;47.99;50.53;;
71034;Laerm;58847;52.378;4.740;2023-02-15T00:48:36;49.24;47.84;50.56;;
71034;Laerm;58847;52.378;4.740;2023-02-15T00:48:46;49.24;48.08;50.53;;
71034;Laerm;58847;52.378;4.740;2023-02-15T00:48:56;49.26;48.13;50.93;;
71034;Laerm;58847;52.378;4.740;2023-02-15T00:49:07;49.29;48.16;50.56;;
71034;Laerm;58847;52.378;4.740;2023-02-15T00:49:17;49.25;48.09;50.58;;
71034;Laerm;58847;52.378;4.740;2023-02-15T00:49:27;49.15;47.96;50.94;;
71034;Laerm;58847;52.378;4.740;2023-02-15T00:49:37;49.13;48.01;50.23;;
71034;Laerm;58847;52.378;4.740;2023-02-15T00:49:47;49.24;48.25;50.16;;
71034;Laerm;58847;52.378;4.740;2023-02-15T00:49:58;49.17;48.04;50.32;;
71034;Laerm;58847;52.378;4.740;2023-02-15T00:50:08;49.18;47.59;50.43;;
71034;Laerm;58847;52.378;4.740;2023-02-15T00:50:18;49.32;48.27;50.99;;
71034;Laerm;58847;52.378;4.740;2023-02-15T00:50:29;49.26;47.91;50.92;;
71034;Laerm;58847;52.378;4.740;2023-02-15T00:50:40;49.47;48.24;50.56;;
71034;Laerm;58847;52.378;4.740;2023-02-15T00:50:51;49.53;48.46;50.82;;
71034;Laerm;58847;52.378;4.740;2023-02-15T00:51:02;49.65;48.46;51.03;;
71034;Laerm;58847;52.378;4.740;2023-02-15T00:51:12;49.71;48.23;51.36;;
71034;Laerm;58847;52.378;4.740;2023-02-15T00:51:23;49.61;48.50;50.69;;
71034;Laerm;58847;52.378;4.740;2023-02-15T00:51:53;49.94;48.67;51.69;;
71034;Laerm;58847;52.378;4.740;2023-02-15T00:52:03;50.10;48.98;52.05;;
71034;Laerm;58847;52.378;4.740;2023-02-15T00:52:14;50.01;48.48;51.57;;
71034;Laerm;58847;52.378;4.740;2023-02-15T00:52:24;49.66;48.59;51.05;;
71034;Laerm;58847;52.378;4.740;2023-02-15T00:52:34;49.37;48.20;50.98;;
71034;Laerm;58847;52.378;4.740;2023-02-15T00:52:44;49.48;48.44;51.00;;
71034;Laerm;58847;52.378;4.740;2023-02-15T00:52:54;49.47;48.04;51.16;;
71034;Laerm;58847;52.378;4.740;2023-02-15T00:53:05;49.47;47.90;50.84;;
71034;Laerm;58847;52.378;4.740;2023-02-15T00:53:15;49.61;48.21;51.37;;
71034;Laerm;58847;52.378;4.740;2023-02-15T00:53:26;49.43;48.12;51.07;;
71034;Laerm;58847;52.378;4.740;2023-02-15T00:53:36;49.46;47.87;50.80;;
71034;Laerm;58847;52.378;4.740;2023-02-15T00:53:47;49.44;48.09;50.82;;
71034;Laerm;58847;52.378;4.740;2023-02-15T00:54:12;49.59;48.24;50.71;;
71034;Laerm;58847;52.378;4.740;2023-02-15T00:54:22;49.44;47.96;50.83;;
71034;Laerm;58847;52.378;4.740;2023-02-15T00:54:32;49.51;48.37;51.02;;
71034;Laerm;58847;52.378;4.740;2023-02-15T00:54:44;49.56;48.32;51.09;;
71034;Laerm;58847;52.378;4.740;2023-02-15T00:54:54;49.26;47.68;51.21;;
71034;Laerm;58847;52.378;4.740;2023-02-15T00:55:05;49.65;48.57;51.30;;
71034;Laerm;58847;52.378;4.740;2023-02-15T00:55:15;49.45;48.33;50.53;;
71034;Laerm;58847;52.378;4.740;2023-02-15T00:55:25;49.36;47.78;50.78;;
71034;Laerm;58847;52.378;4.740;2023-02-15T00:55:36;49.59;48.25;50.97;;
71034;Laerm;58847;52.378;4.740;2023-02-15T00:55:47;49.48;48.26;50.89;;
71034;Laerm;58847;52.378;4.740;2023-02-15T00:55:57;49.71;48.25;51.19;;
71034;Laerm;58847;52.378;4.740;2023-02-15T00:56:07;49.36;48.39;51.51;;
71034;Laerm;58847;52.378;4.740;2023-02-15T00:56:18;49.38;48.02;51.36;;
71034;Laerm;58847;52.378;4.740;2023-02-15T00:56:29;49.11;47.75;50.82;;
71034;Laerm;58847;52.378;4.740;2023-02-15T00:56:39;49.16;47.83;50.95;;
71034;Laerm;58847;52.378;4.740;2023-02-15T00:56:49;49.02;47.90;50.37;;
71034;Laerm;58847;52.378;4.740;2023-02-15T00:57:00;48.99;47.89;50.82;;
71034;Laerm;58847;52.378;4.740;2023-02-15T00:57:10;48.93;47.78;50.94;;
71034;Laerm;58847;52.378;4.740;2023-02-15T00:57:20;48.99;48.05;50.00;;
71034;Laerm;58847;52.378;4.740;2023-02-15T00:57:31;49.02;47.47;50.41;;
71034;Laerm;58847;52.378;4.740;2023-02-15T00:57:41;49.14;47.96;50.68;;
71034;Laerm;58847;52.378;4.740;2023-02-15T00:57:51;49.11;47.65;50.34;;
71034;Laerm;58847;52.378;4.740;2023-02-15T00:58:01;49.12;47.90;50.86;;
71034;Laerm;58847;52.378;4.740;2023-02-15T00:58:12;48.91;47.77;49.97;;
71034;Laerm;58847;52.378;4.740;2023-02-15T00:58:23;48.96;48.00;50.15;;
71034;Laerm;58847;52.378;4.740;2023-02-15T00:58:33;49.02;47.56;50.37;;
71034;Laerm;58847;52.378;4.740;2023-02-15T00:58:43;48.98;47.74;50.43;;
71034;Laerm;58847;52.378;4.740;2023-02-15T00:58:54;48.95;47.70;50.38;;
71034;Laerm;58847;52.378;4.740;2023-02-15T00:59:04;48.98;48.05;50.25;;
71034;Laerm;58847;52.378;4.740;2023-02-15T00:59:14;48.83;47.81;50.39;;
71034;Laerm;58847;52.378;4.740;2023-02-15T00:59:24;48.94;47.92;49.93;;
71034;Laerm;58847;52.378;4.740;2023-02-15T00:59:34;49.03;48.05;50.23;;
71034;Laerm;58847;52.378;4.740;2023-02-15T00:59:45;49.04;48.12;50.42;;
71034;Laerm;58847;52.378;4.740;2023-02-15T01:00:01;49.01;47.96;50.72;;
71034;Laerm;58847;52.378;4.740;2023-02-15T01:00:11;49.09;47.99;50.39;;
71034;Laerm;58847;52.378;4.740;2023-02-15T01:00:22;49.02;47.91;50.45;;
71034;Laerm;58847;52.378;4.740;2023-02-15T01:00:32;48.95;48.01;51.01;;
71034;Laerm;58847;52.378;4.740;2023-02-15T01:00:43;48.97;47.85;50.11;;
71034;Laerm;58847;52.378;4.740;2023-02-15T01:01:23;48.82;47.62;51.11;;
71034;Laerm;58847;52.378;4.740;2023-02-15T01:01:33;48.86;47.76;50.26;;
71034;Laerm;58847;52.378;4.740;2023-02-15T01:01:43;48.76;47.78;50.62;;
71034;Laerm;58847;52.378;4.740;2023-02-15T01:01:54;48.71;47.73;50.06;;
71034;Laerm;58847;52.378;4.740;2023-02-15T01:02:04;48.66;47.80;49.85;;
71034;Laerm;58847;52.378;4.740;2023-02-15T01:02:14;48.79;47.88;50.18;;
71034;Laerm;58847;52.378;4.740;2023-02-15T01:02:24;48.86;47.85;50.26;;
71034;Laerm;58847;52.378;4.740;2023-02-15T01:02:35;48.76;47.84;49.80;;